Time;durP1;ratioP1;P1;durP2;ratioP2;P2;SDS_P1;SDS_P2;PMS_P1;PMS_P2;Temp;Humidity;BMP_temperature;BMP_pressure;BME280_temperature;BME280_humidity;BME280_pressure;Samples;Min_cycle;Max_cycle;Signal;HPM_P1;HPM_P2
2021/08/26 00:00:32;;;;;;;5.80;3.40;;;15.30;99.90;;;;;;4193292;28;20203;-77
2021/08/26 00:07:12;;;;;;;8.43;4.32;;;15.20;99.90;;;;;;4204484;28;20031;-77
2021/08/26 00:09:15;;;;;;;5.28;3.42;;;15.30;99.90;;;;;;4213259;28;20535;-77
2021/08/26 00:11:21;;;;;;;11.05;3.38;;;15.30;99.90;;;;;;4195826;28;20036;-77
2021/08/26 00:13:22;;;;;;;5.72;3.90;;;15.30;99.90;;;;;;4194668;28;20050;-77
2021/08/26 00:15:23;;;;;;;9.98;3.45;;;15.30;99.90;;;;;;4191377;28;20466;-75
2021/08/26 00:17:23;;;;;;;12.35;4.00;;;15.30;99.90;;;;;;4205430;28;20028;-77
2021/08/26 00:19:24;;;;;;;9.18;4.22;;;15.30;99.90;;;;;;4207852;28;20467;-77
2021/08/26 00:21:27;;;;;;;6.88;3.58;;;15.30;99.90;;;;;;4211630;28;20091;-77
2021/08/26 00:23:27;;;;;;;7.88;3.78;;;15.30;99.90;;;;;;4207439;28;20040;-77
2021/08/26 00:25:28;;;;;;;5.45;3.38;;;15.30;99.90;;;;;;4213469;28;20042;-78
2021/08/26 00:27:29;;;;;;;8.98;3.85;;;15.30;99.90;;;;;;4191463;28;20062;-77
2021/08/26 00:29:29;;;;;;;9.18;4.30;;;15.30;99.90;;;;;;4204720;28;20123;-75
2021/08/26 00:31:31;;;;;;;9.18;4.60;;;15.40;99.90;;;;;;4193859;28;20036;-75
2021/08/26 00:33:32;;;;;;;10.63;3.90;;;15.40;99.90;;;;;;4207103;28;20141;-77
2021/08/26 00:35:33;;;;;;;9.25;5.05;;;15.30;99.90;;;;;;4210990;28;20032;-77
2021/08/26 00:37:33;;;;;;;10.18;4.55;;;15.30;99.90;;;;;;4206743;28;20036;-77
2021/08/26 00:39:34;;;;;;;8.98;3.88;;;15.40;99.90;;;;;;4211014;28;20036;-74
2021/08/26 00:41:35;;;;;;;8.55;4.10;;;15.40;99.90;;;;;;4187123;28;20119;-77
2021/08/26 00:43:36;;;;;;;9.30;4.40;;;15.40;99.90;;;;;;4211035;28;20052;-77
2021/08/26 00:45:38;;;;;;;9.32;3.80;;;15.40;99.90;;;;;;4189404;28;20440;-78
2021/08/26 00:47:43;;;;;;;11.38;4.22;;;15.40;99.90;;;;;;4209793;28;20036;-78
2021/08/26 00:49:50;;;;;;;8.00;3.80;;;15.40;99.90;;;;;;4209710;28;20032;-76
2021/08/26 00:51:51;;;;;;;7.07;4.03;;;15.40;99.90;;;;;;4207848;28;20040;-76
2021/08/26 00:53:53;;;;;;;9.48;3.58;;;15.40;99.90;;;;;;4207230;28;20047;-76
2021/08/26 00:55:53;;;;;;;8.83;3.53;;;15.40;99.90;;;;;;4187622;28;20584;-76
2021/08/26 00:57:54;;;;;;;6.32;3.75;;;15.50;99.90;;;;;;4193341;28;20032;-76
2021/08/26 00:59:55;;;;;;;14.02;4.10;;;15.50;99.90;;;;;;4211317;28;20027;-77
2021/08/26 01:02:24;;;;;;;8.38;4.25;;;15.50;99.90;;;;;;4207535;28;20080;-76
2021/08/26 01:04:49;;;;;;;9.18;5.07;;;15.50;99.90;;;;;;4197412;28;20032;-77
2021/08/26 01:07:09;;;;;;;6.63;3.75;;;15.50;99.90;;;;;;4209616;28;20527;-77
2021/08/26 01:09:14;;;;;;;6.55;3.83;;;15.50;99.90;;;;;;4207835;28;20086;-76
2021/08/26 01:11:16;;;;;;;9.35;3.35;;;15.50;99.90;;;;;;4193173;28;20033;-76
2021/08/26 01:13:18;;;;;;;12.13;3.75;;;15.60;99.90;;;;;;4210398;28;20025;-76
2021/08/26 01:15:18;;;;;;;5.65;3.20;;;15.60;99.90;;;;;;4211358;28;20033;-77
2021/08/26 01:17:29;;;;;;;11.40;4.65;;;15.60;99.90;;;;;;4209477;28;20113;-77
2021/08/26 01:19:30;;;;;;;8.68;3.95;;;15.60;99.90;;;;;;4208206;28;20086;-77
2021/08/26 01:21:31;;;;;;;8.65;3.83;;;15.60;99.90;;;;;;4188911;28;20044;-77
2021/08/26 01:23:43;;;;;;;13.38;4.50;;;15.60;99.90;;;;;;4208534;28;20396;-77
2021/08/26 01:25:46;;;;;;;8.68;4.10;;;15.50;99.90;;;;;;4210000;28;20456;-76
2021/08/26 01:27:47;;;;;;;;;;;15.50;99.90;;;;;;4205680;28;20475;-76
2021/08/26 01:29:49;;;;;;;13.15;4.00;;;15.50;99.90;;;;;;4193572;28;19912;-77
2021/08/26 01:31:49;;;;;;;14.25;4.50;;;15.50;99.90;;;;;;4212630;28;20071;-76
2021/08/26 01:33:53;;;;;;;12.38;5.07;;;15.40;99.90;;;;;;4210618;28;20024;-77
2021/08/26 01:35:56;;;;;;;21.15;6.15;;;15.40;99.90;;;;;;4210624;28;20507;-77
2021/08/26 01:37:59;;;;;;;14.02;5.55;;;15.30;99.90;;;;;;4210831;28;20024;-77
2021/08/26 01:40:00;;;;;;;13.77;5.70;;;15.30;99.90;;;;;;4192431;28;20029;-74
2021/08/26 01:42:00;;;;;;;15.27;5.07;;;15.30;99.90;;;;;;4193942;28;20029;-75
2021/08/26 01:44:01;;;;;;;21.05;6.50;;;15.30;99.90;;;;;;4210905;28;20041;-74
2021/08/26 01:46:02;;;;;;;15.60;5.60;;;15.40;99.90;;;;;;4209866;28;20066;-75
2021/08/26 01:48:02;;;;;;;18.02;5.90;;;15.40;99.90;;;;;;4192545;28;21731;-75
2021/08/26 01:50:04;;;;;;;16.00;5.70;;;15.30;99.90;;;;;;4210059;28;20028;-75
2021/08/26 01:52:06;;;;;;;13.13;4.85;;;15.30;99.90;;;;;;4210592;28;20020;-76
2021/08/26 01:54:10;;;;;;;13.07;5.32;;;15.30;99.90;;;;;;4211156;28;20044;-77
2021/08/26 01:56:11;;;;;;;16.23;5.88;;;15.20;99.90;;;;;;4192609;28;20174;-76
2021/08/26 01:58:13;;;;;;;23.17;6.80;;;15.20;99.90;;;;;;4193397;28;20044;-76
2021/08/26 02:00:14;;;;;;;15.20;5.70;;;15.10;99.90;;;;;;4209737;28;20479;-77
2021/08/26 02:02:15;;;;;;;18.95;6.03;;;15.10;99.90;;;;;;4193711;28;20059;-76
2021/08/26 02:04:16;;;;;;;16.17;5.85;;;15.10;99.90;;;;;;4209085;28;20024;-76
2021/08/26 02:06:16;;;;;;;13.10;5.65;;;15.20;99.90;;;;;;4187617;28;20025;-75
2021/08/26 02:08:17;;;;;;;20.08;6.30;;;15.20;99.90;;;;;;4191247;28;20043;-75
2021/08/26 02:10:17;;;;;;;19.33;5.70;;;15.20;99.90;;;;;;4206894;28;20031;-77
2021/08/26 02:12:18;;;;;;;18.95;5.95;;;15.20;99.90;;;;;;4191580;28;20098;-76
2021/08/26 02:14:19;;;;;;;11.65;4.65;;;15.20;99.90;;;;;;4202647;28;20029;-75
2021/08/26 02:16:19;;;;;;;12.13;6.20;;;15.20;99.90;;;;;;4210111;28;20032;-76
2021/08/26 02:18:20;;;;;;;17.05;6.28;;;15.20;99.90;;;;;;4207013;28;20033;-76
2021/08/26 02:20:21;;;;;;;13.88;5.43;;;15.20;99.90;;;;;;4212003;28;20043;-76
2021/08/26 02:22:22;;;;;;;23.52;6.80;;;15.10;99.90;;;;;;4210958;28;20025;-76
2021/08/26 02:24:23;;;;;;;12.43;5.72;;;15.10;99.90;;;;;;4211600;28;20115;-76
2021/08/26 02:26:24;;;;;;;18.98;6.25;;;;;;;;;;4214180;28;20020;-77
2021/08/26 02:28:24;;;;;;;16.60;6.03;;;15.10;99.90;;;;;;4213891;28;20065;-77
2021/08/26 02:30:25;;;;;;;18.20;6.10;;;15.00;99.90;;;;;;4195009;28;20388;-77
2021/08/26 02:32:29;;;;;;;21.00;6.00;;;15.00;99.90;;;;;;4196146;28;20060;-77
2021/08/26 02:34:30;;;;;;;23.48;7.95;;;15.00;99.90;;;;;;4213765;28;20036;-76
2021/08/26 02:36:30;;;;;;;15.18;6.00;;;15.00;99.90;;;;;;4212449;28;20506;-77
2021/08/26 02:38:31;;;;;;;20.83;6.70;;;15.00;99.90;;;;;;4187720;28;20171;-77
2021/08/26 02:40:32;;;;;;;18.63;6.63;;;15.10;99.90;;;;;;4193700;28;20043;-77
2021/08/26 02:42:32;;;;;;;24.63;6.25;;;15.00;99.90;;;;;;4209009;28;20108;-77
2021/08/26 02:44:33;;;;;;;16.00;5.93;;;15.10;99.90;;;;;;4213039;28;20040;-77
2021/08/26 02:46:33;;;;;;;23.63;6.63;;;15.10;99.90;;;;;;4208783;28;20063;-77
2021/08/26 02:48:34;;;;;;;21.67;6.63;;;15.10;99.90;;;;;;4211320;28;20036;-77
2021/08/26 02:50:35;;;;;;;20.65;7.45;;;15.10;99.90;;;;;;4210752;28;20065;-77
2021/08/26 02:52:35;;;;;;;19.42;6.10;;;15.10;99.90;;;;;;4211616;28;20020;-77
2021/08/26 02:54:36;;;;;;;21.30;6.75;;;15.10;99.90;;;;;;4208246;28;20052;-76
2021/08/26 02:56:36;;;;;;;23.90;7.20;;;15.10;99.90;;;;;;4195991;28;20650;-77
2021/08/26 02:58:37;;;;;;;16.73;6.07;;;15.20;99.90;;;;;;4210887;28;20040;-77
2021/08/26 03:00:37;;;;;;;17.40;5.22;;;15.30;99.90;;;;;;4192425;28;20190;-76
2021/08/26 03:02:38;;;;;;;13.48;5.20;;;15.30;99.90;;;;;;4209433;28;20085;-77
2021/08/26 03:04:39;;;;;;;17.42;5.80;;;15.30;99.90;;;;;;4207545;28;20025;-76
2021/08/26 03:06:40;;;;;;;19.52;5.55;;;15.30;99.90;;;;;;4211247;28;20499;-76
2021/08/26 03:08:40;;;;;;;16.52;7.20;;;15.20;99.90;;;;;;4210480;28;20191;-76
2021/08/26 03:10:41;;;;;;;18.85;5.30;;;15.20;99.90;;;;;;4193886;28;20041;-76
2021/08/26 03:12:41;;;;;;;19.73;5.80;;;15.20;99.90;;;;;;4211078;28;20535;-76
2021/08/26 03:14:42;;;;;;;18.42;5.30;;;15.20;99.90;;;;;;4210630;28;20059;-77
2021/08/26 03:16:43;;;;;;;19.95;6.68;;;15.20;99.90;;;;;;4212952;28;20048;-76
2021/08/26 03:18:43;;;;;;;20.50;6.97;;;15.10;99.90;;;;;;4190546;28;20161;-76
2021/08/26 03:20:44;;;;;;;15.98;5.80;;;15.10;99.90;;;;;;4186539;28;20396;-76
2021/08/26 03:22:44;;;;;;;27.02;6.75;;;15.10;99.90;;;;;;4193886;28;20111;-76
2021/08/26 03:24:45;;;;;;;17.92;6.13;;;15.00;99.90;;;;;;4189131;28;20613;-76
2021/08/26 03:26:45;;;;;;;17.52;5.82;;;15.10;99.90;;;;;;4212066;28;20118;-76
2021/08/26 03:28:46;;;;;;;21.23;6.43;;;15.00;99.90;;;;;;4209246;28;20052;-76
2021/08/26 03:30:47;;;;;;;16.95;5.57;;;15.00;99.90;;;;;;4206883;28;20033;-77
2021/08/26 03:32:48;;;;;;;15.30;6.70;;;15.00;99.90;;;;;;4209603;28;20101;-76
2021/08/26 03:34:48;;;;;;;16.35;6.15;;;15.00;99.90;;;;;;4205286;28;20033;-77
2021/08/26 03:36:49;;;;;;;16.35;6.15;;;15.00;99.90;;;;;;4212625;28;20123;-77
2021/08/26 03:38:50;;;;;;;19.70;5.68;;;15.00;99.90;;;;;;4211729;28;20138;-77
2021/08/26 03:40:50;;;;;;;13.35;5.38;;;15.00;99.90;;;;;;4205926;28;20375;-75
2021/08/26 03:42:51;;;;;;;20.85;6.95;;;15.10;99.90;;;;;;4210127;28;20040;-76
2021/08/26 03:44:51;;;;;;;20.13;6.13;;;15.00;99.90;;;;;;4206866;28;20020;-76
2021/08/26 03:46:52;;;;;;;18.00;6.63;;;15.10;99.90;;;;;;4195082;28;20033;-76
2021/08/26 03:48:53;;;;;;;14.82;5.50;;;15.10;99.90;;;;;;4193229;28;20037;-75
2021/08/26 03:50:53;;;;;;;15.93;5.85;;;15.00;99.90;;;;;;4212417;28;20031;-77
2021/08/26 03:52:54;;;;;;;18.73;7.50;;;15.00;99.90;;;;;;4191307;28;20048;-77
2021/08/26 03:54:54;;;;;;;16.60;5.88;;;15.00;99.90;;;;;;4212087;28;20024;-74
2021/08/26 03:56:55;;;;;;;19.10;5.43;;;15.00;99.90;;;;;;4192028;28;20044;-75
2021/08/26 03:58:55;;;;;;;18.17;5.93;;;15.00;99.90;;;;;;4211999;28;20044;-76
2021/08/26 04:00:56;;;;;;;17.35;6.03;;;15.00;99.90;;;;;;4193197;28;20028;-76
2021/08/26 04:02:57;;;;;;;12.45;5.15;;;15.00;99.90;;;;;;4212979;28;20035;-77
2021/08/26 04:04:57;;;;;;;16.55;5.90;;;15.00;99.90;;;;;;4210371;28;20040;-77
2021/08/26 04:06:58;;;;;;;12.80;5.60;;;15.10;99.90;;;;;;4190063;28;20061;-76
2021/08/26 04:08:59;;;;;;;21.42;5.90;;;15.00;99.90;;;;;;4211549;28;20029;-76
2021/08/26 04:10:59;;;;;;;15.30;6.35;;;14.90;99.90;;;;;;4212959;28;20571;-77
2021/08/26 04:12:59;;;;;;;20.40;6.53;;;14.80;99.90;;;;;;4194805;28;20135;-77
2021/08/26 04:15:00;;;;;;;15.38;4.88;;;14.70;99.90;;;;;;4208703;28;20032;-76
2021/08/26 04:17:01;;;;;;;16.52;5.13;;;14.70;99.90;;;;;;4210732;28;20032;-77
2021/08/26 04:19:01;;;;;;;25.48;7.72;;;14.70;99.90;;;;;;4210408;28;20381;-76
2021/08/26 04:21:02;;;;;;;21.08;6.43;;;14.70;99.90;;;;;;4187783;28;20032;-76
2021/08/26 04:23:06;;;;;;;18.20;6.32;;;14.70;99.90;;;;;;4211303;28;20042;-77
2021/08/26 04:25:07;;;;;;;13.80;6.07;;;14.70;99.90;;;;;;4192443;28;20058;-76
2021/08/26 04:27:09;;;;;;;20.48;6.13;;;14.70;99.90;;;;;;4203559;28;20415;-76
2021/08/26 04:29:09;;;;;;;16.33;5.80;;;14.70;99.90;;;;;;4211507;28;20483;-77
2021/08/26 04:31:10;;;;;;;18.27;5.80;;;14.60;99.90;;;;;;4204668;28;20043;-77
2021/08/26 04:33:12;;;;;;;11.60;6.25;;;14.60;99.90;;;;;;4194398;28;20475;-76
2021/08/26 04:35:12;;;;;;;15.95;6.25;;;14.70;99.90;;;;;;4203327;28;20040;-76
2021/08/26 04:37:13;;;;;;;17.20;5.88;;;14.70;99.90;;;;;;4212138;28;20032;-77
2021/08/26 04:39:13;;;;;;;20.02;6.45;;;14.70;99.90;;;;;;4206970;28;20566;-76
2021/08/26 04:41:14;;;;;;;22.55;6.85;;;14.80;99.90;;;;;;4210873;28;20376;-76
2021/08/26 04:43:14;;;;;;;14.93;5.95;;;14.80;99.90;;;;;;4207253;28;20419;-76
2021/08/26 04:45:16;;;;;;;11.75;6.13;;;14.80;99.90;;;;;;4194889;28;20028;-76
2021/08/26 04:47:16;;;;;;;23.77;7.40;;;14.80;99.90;;;;;;4208984;28;20040;-76
2021/08/26 04:49:17;;;;;;;16.27;6.25;;;14.80;99.90;;;;;;4212683;28;20117;-76
2021/08/26 04:51:18;;;;;;;20.05;5.35;;;14.80;99.90;;;;;;4192358;28;20079;-76
2021/08/26 04:53:18;;;;;;;20.08;5.88;;;14.80;99.90;;;;;;4194157;28;20056;-76
2021/08/26 04:55:19;;;;;;;17.65;5.10;;;14.80;99.90;;;;;;4209295;28;20386;-76
2021/08/26 04:57:20;;;;;;;22.48;5.68;;;14.90;99.90;;;;;;4198313;28;20162;-76
2021/08/26 04:59:20;;;;;;;15.63;6.30;;;14.80;99.90;;;;;;4194532;28;20041;-75
2021/08/26 05:01:21;;;;;;;18.60;5.45;;;14.80;99.90;;;;;;4187959;28;20415;-76
2021/08/26 05:03:22;;;;;;;14.93;4.88;;;14.80;99.90;;;;;;4210434;28;20367;-76
2021/08/26 05:05:22;;;;;;;14.02;5.68;;;14.90;99.90;;;;;;4203986;28;20028;-76
2021/08/26 05:07:23;;;;;;;26.30;6.70;;;14.90;99.90;;;;;;4191942;28;20037;-76
2021/08/26 05:09:23;;;;;;;15.50;4.75;;;14.90;99.90;;;;;;4207803;28;20783;-76
2021/08/26 05:11:24;;;;;;;18.23;6.07;;;14.90;99.90;;;;;;4209937;28;20356;-76
2021/08/26 05:13:24;;;;;;;15.60;5.35;;;14.90;99.90;;;;;;4208466;28;20521;-76
2021/08/26 05:15:25;;;;;;;16.42;5.05;;;14.90;99.90;;;;;;4210396;28;20059;-76
2021/08/26 05:17:26;;;;;;;29.50;5.13;;;14.90;99.90;;;;;;4209512;28;20443;-76
2021/08/26 05:19:26;;;;;;;19.58;4.88;;;15.00;99.90;;;;;;4210055;28;20040;-76
2021/08/26 05:21:27;;;;;;;19.80;5.00;;;15.00;99.90;;;;;;4209708;28;20040;-76
2021/08/26 05:23:29;;;;;;;12.20;5.05;;;15.00;99.90;;;;;;4203458;28;20123;-76
2021/08/26 05:25:30;;;;;;;12.70;4.78;;;15.10;99.90;;;;;;4192644;28;20040;-76
2021/08/26 05:27:30;;;;;;;14.82;4.78;;;15.20;99.90;;;;;;4210573;28;20034;-76
2021/08/26 05:29:31;;;;;;;19.90;5.45;;;15.20;99.90;;;;;;4204002;28;20051;-77
2021/08/26 05:31:31;;;;;;;12.05;4.07;;;15.30;99.90;;;;;;4211769;28;20384;-77
2021/08/26 05:33:32;;;;;;;14.02;4.63;;;15.20;99.90;;;;;;4204106;28;20464;-76
2021/08/26 05:35:33;;;;;;;12.00;5.15;;;15.30;99.90;;;;;;4210948;28;20029;-76
2021/08/26 05:37:33;;;;;;;13.43;4.53;;;15.30;99.90;;;;;;4205191;28;20044;-76
2021/08/26 05:39:34;;;;;;;17.05;5.82;;;15.30;99.90;;;;;;4212138;28;20395;-76
2021/08/26 05:41:35;;;;;;;15.63;4.63;;;15.40;99.90;;;;;;4206850;28;20028;-77
2021/08/26 05:43:35;;;;;;;11.60;3.92;;;15.40;99.90;;;;;;4212075;28;20398;-76
2021/08/26 05:45:36;;;;;;;17.58;4.78;;;15.40;99.90;;;;;;4188184;28;20499;-75
2021/08/26 05:47:36;;;;;;;15.48;4.43;;;15.50;99.90;;;;;;4211954;28;20035;-76
2021/08/26 05:49:37;;;;;;;9.60;4.05;;;15.60;99.90;;;;;;4207871;28;20425;-76
2021/08/26 05:51:38;;;;;;;11.40;3.50;;;15.60;99.90;;;;;;4189172;28;20033;-77
2021/08/26 05:53:39;;;;;;;15.50;4.78;;;15.60;99.90;;;;;;4212488;28;20028;-77
2021/08/26 05:55:39;;;;;;;15.73;4.25;;;15.60;99.90;;;;;;4207537;28;20037;-77
2021/08/26 05:57:40;;;;;;;10.00;3.58;;;15.70;99.90;;;;;;4214269;28;20035;-75
2021/08/26 05:59:40;;;;;;;11.50;5.25;;;15.80;99.90;;;;;;4207552;28;20131;-76
2021/08/26 06:01:42;;;;;;;17.20;4.05;;;15.80;99.90;;;;;;4191700;28;20085;-75
2021/08/26 06:03:43;;;;;;;14.90;5.30;;;15.80;99.90;;;;;;4206076;28;20123;-76
2021/08/26 06:05:43;;;;;;;17.05;4.72;;;15.80;99.90;;;;;;4212540;28;20061;-76
2021/08/26 06:07:44;;;;;;;17.92;8.07;;;15.80;99.90;;;;;;4207827;28;20047;-76
2021/08/26 06:09:45;;;;;;;9.85;3.75;;;15.90;99.90;;;;;;4196494;28;20040;-76
2021/08/26 06:11:46;;;;;;;16.83;4.40;;;15.90;99.90;;;;;;4193070;28;20040;-76
2021/08/26 06:13:46;;;;;;;13.07;5.47;;;15.90;99.90;;;;;;4212803;28;20032;-76
2021/08/26 06:15:47;;;;;;;8.80;4.07;;;16.00;99.90;;;;;;4210116;28;20028;-76
2021/08/26 06:17:47;;;;;;;12.15;4.15;;;16.00;99.90;;;;;;4212729;28;20028;-77
2021/08/26 06:19:48;;;;;;;10.50;4.20;;;16.00;99.90;;;;;;4191569;28;20032;-76
2021/08/26 06:21:48;;;;;;;10.70;3.97;;;16.10;99.90;;;;;;4211336;28;20066;-74
2021/08/26 06:23:49;;;;;;;12.55;3.75;;;16.10;99.90;;;;;;4213207;28;20111;-75
2021/08/26 06:25:50;;;;;;;14.98;5.28;;;16.10;99.90;;;;;;4212944;28;20046;-75
2021/08/26 06:27:50;;;;;;;18.20;5.20;;;16.20;99.90;;;;;;4206674;28;20388;-75
2021/08/26 06:29:51;;;;;;;10.23;3.55;;;16.20;99.90;;;;;;4192331;28;20043;-77
2021/08/26 06:31:52;;;;;;;6.55;3.22;;;16.30;99.90;;;;;;4195184;28;20029;-76
2021/08/26 06:33:52;;;;;;;16.88;3.97;;;16.40;99.90;;;;;;4214312;28;20028;-76
2021/08/26 06:35:53;;;;;;;14.73;3.78;;;16.50;99.90;;;;;;4210084;28;20040;-76
2021/08/26 06:37:54;;;;;;;12.32;4.03;;;16.60;99.90;;;;;;4212926;28;20116;-76
2021/08/26 06:39:54;;;;;;;11.38;4.90;;;16.60;99.90;;;;;;4192205;28;20071;-76
2021/08/26 06:41:56;;;;;;;11.20;4.30;;;16.60;99.90;;;;;;4214037;28;20043;-76
2021/08/26 06:43:57;;;;;;;12.57;5.18;;;16.50;99.90;;;;;;4209615;28;20123;-74
2021/08/26 06:45:57;;;;;;;12.07;3.88;;;16.40;99.90;;;;;;4214299;28;20081;-75
2021/08/26 06:47:58;;;;;;;11.90;4.00;;;16.30;99.90;;;;;;4208205;28;20081;-75
2021/08/26 06:49:58;;;;;;;10.07;3.38;;;16.40;99.90;;;;;;4195932;28;20044;-76
2021/08/26 06:51:59;;;;;;;11.23;3.88;;;16.40;99.90;;;;;;4193595;28;20430;-76
2021/08/26 06:54:00;;;;;;;14.27;4.05;;;16.50;99.90;;;;;;4207904;28;20142;-76
2021/08/26 06:56:00;;;;;;;10.27;3.53;;;16.60;99.90;;;;;;4212128;28;20040;-76
2021/08/26 06:58:01;;;;;;;14.68;4.00;;;16.70;99.90;;;;;;4206823;28;20040;-75
2021/08/26 07:00:04;;;;;;;11.20;4.55;;;16.70;99.90;;;;;;4193307;28;20072;-75
2021/08/26 07:02:05;;;;;;;;;;;16.90;99.90;;;;;;4213389;28;20020;-76
2021/08/26 07:04:05;;;;;;;10.60;4.60;;;16.90;99.90;;;;;;4211062;28;20386;-75
2021/08/26 07:06:06;;;;;;;17.40;4.38;;;17.00;99.90;;;;;;4207759;28;20065;-75
2021/08/26 07:08:06;;;;;;;19.05;3.92;;;17.10;99.90;;;;;;4212361;28;20020;-75
2021/08/26 07:10:07;;;;;;;15.60;4.63;;;17.20;99.90;;;;;;4211370;28;20024;-76
2021/08/26 07:12:08;;;;;;;6.78;3.17;;;17.20;99.90;;;;;;4212628;28;20024;-76
2021/08/26 07:14:09;;;;;;;11.60;3.47;;;17.20;99.90;;;;;;4206887;28;20044;-75
2021/08/26 07:16:12;;;;;;;10.88;3.58;;;17.20;99.90;;;;;;4195545;28;20082;-76
2021/08/26 07:18:15;;;;;;;;;;;17.20;99.90;;;;;;4212671;28;20043;-76
2021/08/26 07:20:15;;;;;;;15.13;3.58;;;17.10;99.90;;;;;;4212348;28;19912;-74
2021/08/26 07:22:16;;;;;;;15.85;3.78;;;17.10;99.90;;;;;;4212959;28;20063;-74
2021/08/26 07:24:17;;;;;;;12.02;2.95;;;17.10;99.90;;;;;;4212619;28;20059;-76
2021/08/26 07:26:19;;;;;;;10.18;3.35;;;17.10;99.90;;;;;;4188725;28;20039;-74
2021/08/26 07:28:19;;;;;;;12.85;4.38;;;17.00;99.90;;;;;;4194632;28;20025;-77
2021/08/26 07:30:20;;;;;;;9.02;3.22;;;17.00;99.90;;;;;;4208376;28;20081;-76
2021/08/26 07:32:21;;;;;;;11.00;3.40;;;17.00;99.90;;;;;;4212654;28;20055;-74
2021/08/26 07:34:21;;;;;;;8.10;3.22;;;17.00;99.90;;;;;;4209301;28;20032;-76
2021/08/26 07:36:22;;;;;;;9.15;3.75;;;16.70;99.90;;;;;;4211054;28;20103;-74
2021/08/26 07:38:22;;;;;;;10.52;3.42;;;16.40;99.90;;;;;;4189958;28;20492;-76
2021/08/26 07:40:24;;;;;;;14.15;4.47;;;16.00;99.90;;;;;;4213556;28;20028;-74
2021/08/26 07:42:24;;;;;;;12.95;4.20;;;15.90;99.90;;;;;;4194723;28;20033;-76
2021/08/26 07:44:25;;;;;;;13.82;3.92;;;15.90;99.90;;;;;;4191390;28;20047;-76
2021/08/26 07:46:25;;;;;;;12.02;5.07;;;16.00;99.90;;;;;;4208951;28;20402;-74
2021/08/26 07:48:26;;;;;;;12.85;4.28;;;16.10;99.90;;;;;;4192054;28;20084;-76
2021/08/26 07:50:26;;;;;;;9.95;3.05;;;16.30;99.90;;;;;;4208883;28;20044;-73
2021/08/26 07:52:27;;;;;;;14.05;4.07;;;16.50;99.90;;;;;;4210545;28;20445;-75
2021/08/26 07:54:29;;;;;;;10.57;3.80;;;16.70;99.90;;;;;;4209941;28;20040;-75
2021/08/26 07:56:31;;;;;;;14.00;3.28;;;16.80;99.90;;;;;;4191836;28;20044;-75
2021/08/26 07:58:32;;;;;;;10.73;3.47;;;17.00;99.90;;;;;;4211174;28;20044;-75
2021/08/26 08:00:32;;;;;;;6.13;3.22;;;17.10;99.90;;;;;;4212239;28;20331;-74
2021/08/26 08:02:33;;;;;;;8.52;3.72;;;17.10;99.90;;;;;;4210248;28;20189;-76
2021/08/26 08:04:34;;;;;;;9.52;3.45;;;17.00;99.90;;;;;;4211809;28;20040;-76
2021/08/26 08:06:34;;;;;;;10.23;3.38;;;17.00;99.90;;;;;;4210502;28;20067;-77
2021/08/26 08:08:36;;;;;;;8.02;3.40;;;17.00;99.90;;;;;;4203557;28;20530;-75
2021/08/26 08:10:36;;;;;;;10.18;3.38;;;17.10;99.90;;;;;;4211165;28;20044;-76
2021/08/26 08:12:37;;;;;;;13.25;3.53;;;17.20;99.90;;;;;;4205372;28;20079;-76
2021/08/26 08:14:39;;;;;;;12.38;4.07;;;17.40;99.90;;;;;;4191878;28;20474;-76
2021/08/26 08:16:40;;;;;;;6.55;3.17;;;17.50;99.90;;;;;;4189384;28;20392;-77
2021/08/26 08:18:40;;;;;;;7.93;3.88;;;17.50;99.90;;;;;;4210035;28;20097;-76
2021/08/26 08:20:41;;;;;;;10.80;3.85;;;17.50;99.90;;;;;;4208310;28;20099;-76
2021/08/26 08:22:43;;;;;;;9.27;3.70;;;17.40;99.90;;;;;;4187022;28;20059;-76
2021/08/26 08:24:44;;;;;;;12.85;3.65;;;17.30;99.90;;;;;;4207876;28;20032;-75
2021/08/26 08:26:45;;;;;;;8.63;3.40;;;17.10;99.90;;;;;;4194480;28;20059;-74
2021/08/26 08:28:46;;;;;;;10.38;4.30;;;;;;;;;;4209789;28;20028;-74
2021/08/26 08:30:47;;;;;;;10.65;4.22;;;16.70;99.90;;;;;;4211763;28;20058;-75
2021/08/26 08:32:48;;;;;;;12.88;4.10;;;16.60;99.90;;;;;;4194528;28;20044;-75
2021/08/26 08:34:49;;;;;;;11.65;4.25;;;16.60;99.90;;;;;;4188459;28;20041;-75
2021/08/26 08:36:49;;;;;;;12.10;4.20;;;16.60;99.90;;;;;;4211031;28;20472;-75
2021/08/26 08:38:50;;;;;;;9.20;3.78;;;16.50;99.90;;;;;;4191049;28;20040;-76
2021/08/26 08:40:51;;;;;;;11.80;3.83;;;16.40;99.90;;;;;;4207047;28;20027;-76
2021/08/26 08:42:52;;;;;;;12.23;4.07;;;16.30;99.90;;;;;;4209296;28;20100;-76
2021/08/26 08:44:53;;;;;;;13.68;5.03;;;16.30;99.90;;;;;;4208739;28;20024;-75
2021/08/26 08:46:59;;;;;;;13.20;3.92;;;16.40;99.90;;;;;;4209808;28;20378;-76
2021/08/26 08:49:02;;;;;;;11.23;4.05;;;16.70;99.90;;;;;;4209942;28;20427;-75
2021/08/26 08:51:03;;;;;;;8.32;3.53;;;17.00;99.90;;;;;;4209174;28;20032;-75
2021/08/26 08:53:04;;;;;;;12.65;3.65;;;17.60;99.90;;;;;;4210748;28;20039;-75
2021/08/26 08:55:07;;;;;;;13.02;4.75;;;17.90;99.90;;;;;;4206677;28;20410;-75
2021/08/26 08:57:08;;;;;;;12.93;4.50;;;18.10;99.90;;;;;;4205181;28;20052;-76
2021/08/26 08:59:08;;;;;;;9.88;4.35;;;18.20;99.90;;;;;;4209437;28;20499;-75
2021/08/26 09:01:13;;;;;;;10.80;3.83;;;18.30;99.90;;;;;;4204582;28;20024;-76
2021/08/26 09:03:14;;;;;;;13.27;4.45;;;18.20;99.90;;;;;;4210589;28;20495;-76
2021/08/26 09:05:15;;;;;;;12.80;3.55;;;17.90;99.90;;;;;;4194854;28;20026;-76
2021/08/26 09:07:27;;;;;;;9.05;3.78;;;17.60;99.90;;;;;;4207478;28;20024;-75
2021/08/26 09:09:28;;;;;;;12.45;3.75;;;17.50;99.90;;;;;;4211048;28;20028;-76
2021/08/26 09:11:28;;;;;;;8.98;3.83;;;17.40;99.90;;;;;;4205025;28;20073;-76
2021/08/26 09:13:31;;;;;;;12.27;4.22;;;17.20;99.90;;;;;;4209925;28;20453;-76
2021/08/26 09:15:31;;;;;;;16.13;5.03;;;17.10;99.90;;;;;;4190566;28;20042;-76
2021/08/26 09:17:32;;;;;;;16.00;4.32;;;16.60;99.90;;;;;;4211749;28;20495;-76
2021/08/26 09:19:33;;;;;;;9.18;3.97;;;16.60;99.90;;;;;;4207369;28;20028;-76
2021/08/26 09:21:37;;;;;;;8.85;3.95;;;16.60;99.90;;;;;;4211789;28;20094;-77
2021/08/26 09:23:56;;;;;;;7.30;3.35;;;16.90;99.90;;;;;;4192587;28;20101;-75
2021/08/26 09:26:20;;;;;;;10.73;4.32;;;17.30;99.90;;;;;;4211495;28;20446;-76
2021/08/26 09:28:30;;;;;;;10.65;3.42;;;17.80;99.90;;;;;;4213166;28;20040;-75
2021/08/26 09:30:31;;;;;;;18.05;4.95;;;18.20;99.90;;;;;;4213548;28;20097;-76
2021/08/26 09:32:56;;;;;;;12.93;4.03;;;18.50;99.90;;;;;;4211405;28;20060;-76
2021/08/26 09:35:12;;;;;;;10.55;3.42;;;18.80;99.90;;;;;;4218318;28;20052;-77
2021/08/26 09:37:16;;;;;;;11.63;3.83;;;19.00;99.90;;;;;;4210916;28;20028;-75
2021/08/26 09:39:27;;;;;;;6.07;3.47;;;19.10;99.90;;;;;;4214955;28;20085;-76
2021/08/26 09:41:40;;;;;;;6.00;3.33;;;19.30;99.90;;;;;;4210437;28;20037;-76
2021/08/26 09:43:40;;;;;;;11.63;3.57;;;20.00;99.90;;;;;;4190083;28;20528;-75
2021/08/26 09:45:47;;;;;;;10.68;3.58;;;20.60;99.90;;;;;;4179434;28;20276;-75
2021/08/26 09:48:07;;;;;;;11.55;3.55;;;20.30;99.90;;;;;;4181301;28;20029;-75
2021/08/26 09:50:08;;;;;;;9.30;3.65;;;19.60;99.90;;;;;;4175554;28;20059;-76
2021/08/26 09:52:14;;;;;;;9.15;3.88;;;18.90;99.90;;;;;;4180879;28;20112;-76
2021/08/26 09:54:30;;;;;;;10.52;4.25;;;18.50;99.90;;;;;;4180694;28;20089;-76
2021/08/26 09:56:41;;;;;;;13.98;4.60;;;18.50;99.90;;;;;;4181287;28;20117;-76
2021/08/26 09:58:41;;;;;;;10.52;3.80;;;18.50;99.90;;;;;;4182123;28;20040;-76
2021/08/26 10:00:42;;;;;;;12.48;4.25;;;18.60;99.90;;;;;;4175674;28;20033;-77
2021/08/26 10:02:49;;;;;;;8.70;4.57;;;18.70;99.90;;;;;;4179540;28;20112;-75
2021/08/26 10:04:50;;;;;;;10.32;4.68;;;18.90;99.90;;;;;;4173740;28;20029;-74
2021/08/26 10:06:50;;;;;;;10.32;3.63;;;19.20;99.90;;;;;;4180055;28;20029;-75
2021/08/26 10:08:51;;;;;;;14.60;4.85;;;19.30;99.90;;;;;;4177210;28;20056;-74
2021/08/26 10:10:53;;;;;;;10.70;3.58;;;19.20;99.90;;;;;;4172508;28;20041;-76
2021/08/26 10:12:54;;;;;;;9.45;4.95;;;18.90;99.90;;;;;;4179394;28;20086;-75
2021/08/26 10:14:54;;;;;;;14.05;4.50;;;18.60;99.90;;;;;;4172868;28;20460;-75
2021/08/26 10:16:56;;;;;;;13.52;4.90;;;18.60;99.90;;;;;;4180406;28;20376;-76
2021/08/26 10:18:56;;;;;;;10.18;4.93;;;18.50;99.90;;;;;;4180951;28;20041;-76
2021/08/26 10:20:58;;;;;;;9.00;4.75;;;18.30;99.90;;;;;;4174717;28;20520;-76
2021/08/26 10:22:59;;;;;;;27.65;8.85;;;18.00;99.90;;;;;;4175395;28;20045;-75
2021/08/26 10:25:00;;;;;;;14.15;5.95;;;17.80;99.90;;;;;;4180811;28;20123;-76
2021/08/26 10:27:06;;;;;;;15.50;5.60;;;17.70;99.90;;;;;;4181639;28;20025;-75
2021/08/26 10:29:07;;;;;;;18.75;5.60;;;17.80;99.90;;;;;;4174323;28;20036;-76
2021/08/26 10:31:31;;;;;;;12.20;4.75;;;18.00;99.90;;;;;;4180159;28;20040;-76
2021/08/26 10:33:33;;;;;;;12.32;4.50;;;18.40;99.90;;;;;;4178447;28;20033;-75